Time;durP1;ratioP1;P1;durP2;ratioP2;P2;SDS_P1;SDS_P2;PMS_P1;PMS_P2;Temp;Humidity;BMP_temperature;BMP_pressure;BME280_temperature;BME280_humidity;BME280_pressure;Samples;Min_cycle;Max_cycle;Signal;HPM_P1;HPM_P2
2023/04/30 00:00:19;;;;;;;;;;;;;;;;;;5061155;28;19924;-78
2023/04/30 00:03:06;;;;;;;;;;;;;;;;;;5061829;28;20299;-77
2023/04/30 00:05:52;;;;;;;;;;;;;;;;;;5060690;28;20407;-77
2023/04/30 00:08:39;;;;;;;;;;;;;;;;;;5046899;28;19939;-77
2023/04/30 00:11:26;;;;;;;;;;;;;;;;;;5051762;28;19921;-76
2023/04/30 00:14:13;;;;;;;;;;;;;;;;;;5060432;28;19920;-76
2023/04/30 00:16:59;;;;;;;;;;;;;;;;;;5053129;28;19923;-76
2023/04/30 00:19:46;;;;;;;;;;;;;;;;;;5045921;28;19921;-76
2023/04/30 00:22:32;;;;;;;;;;;;;;;;;;5060429;28;20351;-76
2023/04/30 00:25:19;;;;;;;;;;;;;;;;;;5060811;28;19939;-76
2023/04/30 00:28:06;;;;;;;;;;;;;;;;;;5060334;28;19931;-77
2023/04/30 00:30:52;;;;;;;;;;;;;;;;;;5061291;28;20579;-77
2023/04/30 00:33:39;;;;;;;;;;;;;;;;;;5058143;28;19955;-77
2023/04/30 00:36:25;;;;;;;;;;;;;;;;;;5053652;28;19920;-77
2023/04/30 00:39:12;;;;;;;;;;;;;;;;;;5043223;28;19946;-77
2023/04/30 00:41:58;;;;;;;;;;;;;;;;;;5060280;28;19917;-76
2023/04/30 00:44:45;;;;;;;;;;;;;;;;;;5053686;28;19955;-77
2023/04/30 00:47:31;;;;;;;;;;;;;;;;;;5060043;28;19920;-77
2023/04/30 00:50:18;;;;;;;;;;;;;;;;;;5051764;28;19916;-77
2023/04/30 00:53:05;;;;;;;;;;;;;;;;;;5053710;28;19920;-76
2023/04/30 00:55:51;;;;;;;;;;;;;;;;;;5056915;28;19947;-76
2023/04/30 00:58:38;;;;;;;;;;;;;;;;;;5051645;28;20378;-77
2023/04/30 01:01:24;;;;;;;;;;;;;;;;;;5058048;28;19954;-76
2023/04/30 01:04:11;;;;;;;;;;;;;;;;;;5058238;28;19959;-76
2023/04/30 01:06:57;;;;;;;;;;;;;;;;;;5038319;28;19929;-76
2023/04/30 01:09:44;;;;;;;;;;;;;;;;;;5039421;28;19925;-76
2023/04/30 01:12:30;;;;;;;;;;;;;;;;;;5053920;28;19943;-77
2023/04/30 01:15:17;;;;;;;;;;;;;;;;;;5054134;28;20307;-76
2023/04/30 01:18:04;;;;;;;;;;;;;;;;;;5058676;28;19947;-76
2023/04/30 01:20:50;;;;;;;;;;;;;;;;;;5057435;28;19927;-76
2023/04/30 01:23:37;;;;;;;;;;;;;;;;;;5043476;28;19917;-76
2023/04/30 01:26:23;;;;;;;;;;;;;;;;;;5054019;28;20507;-77
2023/04/30 01:29:10;;;;;;;;;;;;;;;;;;5077487;28;19916;-76
2023/04/30 01:31:56;;;;;;;;;;;;;;;;;;5063666;28;19943;-76
2023/04/30 01:34:42;;;;;;;;;;;;;;;;;;5075101;28;19932;-77
2023/04/30 01:37:29;;;;;;;;;;;;;;;;;;5080581;28;19923;-76
2023/04/30 01:40:15;;;;;;;;;;;;;;;;;;5074937;28;19924;-75
2023/04/30 01:43:02;;;;;;;;;;;;;;;;;;5079438;28;20022;-76
2023/04/30 01:45:48;;;;;;;;;;;;;;;;;;5079590;28;19928;-75
2023/04/30 01:48:35;;;;;;;;;;;;;;;;;;5078324;28;19920;-76
2023/04/30 01:51:21;;;;;;;;;;;;;;;;;;5054888;28;19924;-76
2023/04/30 01:54:08;;;;;;;;;;;;;;;;;;5074498;28;19977;-76
2023/04/30 01:56:54;;;;;;;;;;;;;;;;;;5078824;28;19977;-76
2023/04/30 01:59:41;;;;;;;;;;;;;;;;;;5070500;28;19920;-76
2023/04/30 02:02:27;;;;;;;;;;;;;;;;;;5080933;28;19916;-76
2023/04/30 02:05:14;;;;;;;;;;;;;;;;;;5079448;28;19928;-76
2023/04/30 02:08:00;;;;;;;;;;;;;;;;;;5075900;28;20261;-77
2023/04/30 02:10:47;;;;;;;;;;;;;;;;;;5075014;28;19921;-76
2023/04/30 02:13:33;;;;;;;;;;;;;;;;;;5083151;28;20288;-75
2023/04/30 02:16:20;;;;;;;;;;;;;;;;;;5080623;28;19927;-75
2023/04/30 02:19:06;;;;;;;;;;;;;;;;;;5080099;28;19920;-75
2023/04/30 02:21:53;;;;;;;;;;;;;;;;;;5082271;28;20584;-75
2023/04/30 02:24:39;;;;;;;;;;;;;;;;;;5077337;28;19927;-76
2023/04/30 02:27:26;;;;;;;;;;;;;;;;;;5081177;28;20535;-75
2023/04/30 02:30:12;;;;;;;;;;;;;;;;;;5078397;28;19926;-76
2023/04/30 02:32:59;;;;;;;;;;;;;;;;;;5080626;28;19946;-77
2023/04/30 02:35:45;;;;;;;;;;;;;;;;;;5081497;28;19926;-76
2023/04/30 02:38:32;;;;;;;;;;;;;;;;;;5081332;28;19916;-76
2023/04/30 02:41:18;;;;;;;;;;;;;;;;;;5080887;28;19932;-77
2023/04/30 02:44:04;;;;;;;;;;;;;;;;;;5078893;28;19920;-76
2023/04/30 02:46:51;;;;;;;;;;;;;;;;;;5081342;28;20312;-76
2023/04/30 02:49:38;;;;;;;;;;;;;;;;;;5082257;28;19923;-77
2023/04/30 02:52:25;;;;;;;;;;;;;;;;;;5064647;28;19931;-76
2023/04/30 02:55:12;;;;;;;;;;;;;;;;;;5080507;28;19920;-75
2023/04/30 02:57:58;;;;;;;;;;;;;;;;;;5081879;28;19920;-76
2023/04/30 03:00:45;;;;;;;;;;;;;;;;;;5080465;28;19924;-77
2023/04/30 03:03:32;;;;;;;;;;;;;;;;;;5079559;28;20646;-77
2023/04/30 03:06:19;;;;;;;;;;;;;;;;;;5078874;28;19932;-77
2023/04/30 03:09:05;;;;;;;;;;;;;;;;;;5077879;28;20440;-76
2023/04/30 03:11:52;;;;;;;;;;;;;;;;;;5064869;28;19954;-75
2023/04/30 03:14:38;;;;;;;;;;;;;;;;;;5082169;28;19926;-76
2023/04/30 03:17:25;;;;;;;;;;;;;;;;;;5083454;28;19924;-76
2023/04/30 03:20:12;;;;;;;;;;;;;;;;;;5080816;28;19931;-75
2023/04/30 03:22:59;;;;;;;;;;;;;;;;;;5058137;28;19916;-76
2023/04/30 03:25:45;;;;;;;;;;;;;;;;;;5079873;28;19935;-76
2023/04/30 03:28:32;;;;;;;;;;;;;;;;;;5082856;28;19923;-76
2023/04/30 03:31:18;;;;;;;;;;;;;;;;;;5078701;28;19926;-76
2023/04/30 03:34:05;;;;;;;;;;;;;;;;;;5073122;28;19927;-76
2023/04/30 03:36:51;;;;;;;;;;;;;;;;;;5078790;28;19920;-76
2023/04/30 03:39:38;;;;;;;;;;;;;;;;;;5081235;28;19927;-77
2023/04/30 03:42:24;;;;;;;;;;;;;;;;;;5082667;28;20274;-76
2023/04/30 03:45:11;;;;;;;;;;;;;;;;;;5077078;28;19927;-76
2023/04/30 03:47:57;;;;;;;;;;;;;;;;;;5077255;28;19920;-76
2023/04/30 03:50:45;;;;;;;;;;;;;;;;;;5081261;28;20886;-76
2023/04/30 03:53:31;;;;;;;;;;;;;;;;;;5080219;28;20401;-76
2023/04/30 03:56:18;;;;;;;;;;;;;;;;;;5065747;28;19926;-76
2023/04/30 03:59:04;;;;;;;;;;;;;;;;;;5080813;28;19920;-76
2023/04/30 04:01:51;;;;;;;;;;;;;;;;;;5079976;28;19920;-75
2023/04/30 04:04:37;;;;;;;;;;;;;;;;;;5079599;28;19920;-78
2023/04/30 04:07:24;;;;;;;;;;;;;;;;;;5080887;28;19935;-76
2023/04/30 04:10:10;;;;;;;;;;;;;;;;;;5079670;28;19916;-75
2023/04/30 04:12:57;;;;;;;;;;;;;;;;;;5081280;28;19951;-75
2023/04/30 04:15:43;;;;;;;;;;;;;;;;;;5077292;28;19920;-76
2023/04/30 04:18:30;;;;;;;;;;;;;;;;;;5082030;28;19920;-76
2023/04/30 04:21:16;;;;;;;;;;;;;;;;;;5064158;28;19916;-77
2023/04/30 04:24:07;;;;;;;;;;;;;;;;;;5060414;28;19916;-76
2023/04/30 04:26:54;;;;;;;;;;;;;;;;;;5075699;28;19950;-76
2023/04/30 04:29:41;;;;;;;;;;;;;;;;;;5080728;28;19927;-76
2023/04/30 04:32:29;;;;;;;;;;;;;;;;;;5066124;28;20367;-76
2023/04/30 04:35:15;;;;;;;;;;;;;;;;;;5078987;28;19938;-76
2023/04/30 04:38:03;;;;;;;;;;;;;;;;;;5080186;28;19920;-76
2023/04/30 04:40:49;;;;;;;;;;;;;;;;;;5064943;28;19920;-76
2023/04/30 04:43:36;;;;;;;;;;;;;;;;;;5080415;28;20677;-76
2023/04/30 04:46:22;;;;;;;;;;;;;;;;;;5075674;28;19932;-77
2023/04/30 04:49:09;;;;;;;;;;;;;;;;;;5078479;28;19917;-76
2023/04/30 04:51:55;;;;;;;;;;;;;;;;;;5063467;28;19927;-76
2023/04/30 04:54:42;;;;;;;;;;;;;;;;;;5077819;28;20291;-77
2023/04/30 04:57:28;;;;;;;;;;;;;;;;;;5080082;28;19916;-77
2023/04/30 05:00:16;;;;;;;;;;;;;;;;;;5076228;28;19926;-76
2023/04/30 05:03:03;;;;;;;;;;;;;;;;;;5061761;28;20632;-77
2023/04/30 05:05:50;;;;;;;;;;;;;;;;;;5059182;28;19943;-77
2023/04/30 05:08:37;;;;;;;;;;;;;;;;;;5080880;28;19927;-77
2023/04/30 05:11:23;;;;;;;;;;;;;;;;;;5079521;28;19920;-76
2023/04/30 05:14:10;;;;;;;;;;;;;;;;;;5073991;28;19923;-77
2023/04/30 05:16:56;;;;;;;;;;;;;;;;;;5080057;28;19916;-77
2023/04/30 05:19:43;;;;;;;;;;;;;;;;;;5075707;28;20366;-78
2023/04/30 05:22:30;;;;;;;;;;;;;;;;;;5077818;28;19920;-77
2023/04/30 05:25:16;;;;;;;;;;;;;;;;;;5079287;28;19924;-78
2023/04/30 05:28:03;;;;;;;;;;;;;;;;;;5075364;28;19932;-77
2023/04/30 05:30:50;;;;;;;;;;;;;;;;;;5063733;28;19935;-77
2023/04/30 05:33:37;;;;;;;;;;;;;;;;;;5071320;28;19925;-77
2023/04/30 05:36:23;;;;;;;;;;;;;;;;;;5053704;28;20391;-77
2023/04/30 05:39:10;;;;;;;;;;;;;;;;;;5052837;28;19923;-77
2023/04/30 05:41:56;;;;;;;;;;;;;;;;;;5055098;28;19917;-77
2023/04/30 05:44:43;;;;;;;;;;;;;;;;;;5035185;28;19923;-76
2023/04/30 05:47:30;;;;;;;;;;;;;;;;;;5050262;28;21429;-76
2023/04/30 05:50:16;;;;;;;;;;;;;;;;;;5056449;28;19925;-76
2023/04/30 05:53:02;;;;;;;;;;;;;;;;;;5051495;28;19936;-76
2023/04/30 05:55:49;;;;;;;;;;;;;;;;;;5055137;28;20484;-76
2023/04/30 05:58:35;;;;;;;;;;;;;;;;;;5059897;28;20095;-76
2023/04/30 06:01:23;;;;;;;;;;;;;;;;;;5057898;28;19916;-76
2023/04/30 06:04:09;;;;;;;;;;;;;;;;;;5078125;28;19923;-75
2023/04/30 06:06:55;;;;;;;;;;;;;;;;;;5062989;28;19955;-76
2023/04/30 06:09:42;;;;;;;;;;;;;;;;;;5077093;28;19923;-76
2023/04/30 06:12:29;;;;;;;;;;;;;;;;;;5075025;28;19927;-76
2023/04/30 06:15:15;;;;;;;;;;;;;;;;;;5079484;28;19931;-75
2023/04/30 06:18:02;;;;;;;;;;;;;;;;;;5074870;28;20380;-76
2023/04/30 06:20:48;;;;;;;;;;;;;;;;;;5077390;28;20676;-76
2023/04/30 06:23:36;;;;;;;;;;;;;;;;;;5056698;28;19924;-76
2023/04/30 06:26:23;;;;;;;;;;;;;;;;;;5076577;28;19924;-76
2023/04/30 06:29:09;;;;;;;;;;;;;;;;;;5077934;28;19935;-76
2023/04/30 06:31:56;;;;;;;;;;;;;;;;;;5075915;28;20303;-76
2023/04/30 06:34:42;;;;;;;;;;;;;;;;;;5077418;28;19935;-76
2023/04/30 06:37:29;;;;;;;;;;;;;;;;;;5075802;28;19920;-76
2023/04/30 06:40:15;;;;;;;;;;;;;;;;;;5080179;28;19930;-75
2023/04/30 06:43:02;;;;;;;;;;;;;;;;;;5082535;28;19920;-77
2023/04/30 06:45:48;;;;;;;;;;;;;;;;;;5079584;28;19924;-76
2023/04/30 06:48:35;;;;;;;;;;;;;;;;;;5067687;28;19927;-76
2023/04/30 06:51:21;;;;;;;;;;;;;;;;;;5078960;28;19920;-76
2023/04/30 06:54:08;;;;;;;;;;;;;;;;;;5065845;28;19916;-76
2023/04/30 06:56:54;;;;;;;;;;;;;;;;;;5079032;28;19920;-76
2023/04/30 06:59:41;;;;;;;;;;;;;;;;;;5079903;28;19931;-80
2023/04/30 07:02:27;;;;;;;;;;;;;;;;;;5080093;28;19920;-76
2023/04/30 07:05:15;;;;;;;;;;;;;;;;;;5077582;28;19924;-75
2023/04/30 07:08:02;;;;;;;;;;;;;;;;;;5080670;28;20269;-75
2023/04/30 07:10:49;;;;;;;;;;;;;;;;;;5078938;28;19916;-75
2023/04/30 07:13:36;;;;;;;;;;;;;;;;;;5083728;28;20292;-76
2023/04/30 07:16:22;;;;;;;;;;;;;;;;;;5082468;28;19916;-75
2023/04/30 07:19:09;;;;;;;;;;;;;;;;;;5087170;28;19916;-76
2023/04/30 07:21:55;;;;;;;;;;;;;;;;;;5080632;28;19931;-75
2023/04/30 07:24:42;;;;;;;;;;;;;;;;;;5075293;28;19916;-76
2023/04/30 07:27:28;;;;;;;;;;;;;;;;;;5067799;28;19961;-75
2023/04/30 07:30:15;;;;;;;;;;;;;;;;;;5079932;28;19950;-76
2023/04/30 07:33:01;;;;;;;;;;;;;;;;;;5082399;28;19920;-76
2023/04/30 07:35:48;;;;;;;;;;;;;;;;;;5082345;28;19921;-74
2023/04/30 07:38:35;;;;;;;;;;;;;;;;;;5086135;28;19927;-75
2023/04/30 07:41:22;;;;;;;;;;;;;;;;;;5074002;28;19928;-75
2023/04/30 07:44:08;;;;;;;;;;;;;;;;;;5090731;28;19924;-76
2023/04/30 07:46:55;;;;;;;;;;;;;;;;;;5085135;28;19931;-75
2023/04/30 07:49:41;;;;;;;;;;;;;;;;;;5080212;28;19919;-76
2023/04/30 07:52:27;;;;;;;;;;;;;;;;;;5079218;28;19924;-76
2023/04/30 07:55:14;;;;;;;;;;;;;;;;;;5076842;28;19916;-76
2023/04/30 07:58:02;;;;;;;;;;;;;;;;;;5086803;28;19926;-76
2023/04/30 08:00:49;;;;;;;;;;;;;;;;;;5082941;28;19927;-75
2023/04/30 08:03:35;;;;;;;;;;;;;;;;;;5075073;28;20291;-75
2023/04/30 08:06:22;;;;;;;;;;;;;;;;;;5076279;28;20372;-75
2023/04/30 08:09:08;;;;;;;;;;;;;;;;;;5080935;28;19919;-75
2023/04/30 08:11:55;;;;;;;;;;;;;;;;;;5083857;28;19939;-75
2023/04/30 08:14:41;;;;;;;;;;;;;;;;;;5066444;28;19913;-75
2023/04/30 08:17:28;;;;;;;;;;;;;;;;;;5070477;28;19920;-75
2023/04/30 08:20:14;;;;;;;;;;;;;;;;;;5066418;28;19920;-76
2023/04/30 08:23:01;;;;;;;;;;;;;;;;;;5071584;28;19927;-76
2023/04/30 08:25:47;;;;;;;;;;;;;;;;;;5087089;28;20334;-76
2023/04/30 08:28:34;;;;;;;;;;;;;;;;;;5079300;28;19920;-76
2023/04/30 08:31:20;;;;;;;;;;;;;;;;;;5088406;28;19924;-76
2023/04/30 08:34:07;;;;;;;;;;;;;;;;;;5082167;28;20454;-76
2023/04/30 08:36:53;;;;;;;;;;;;;;;;;;5084519;28;19931;-76
2023/04/30 08:39:40;;;;;;;;;;;;;;;;;;5058923;28;19920;-75
2023/04/30 08:42:26;;;;;;;;;;;;;;;;;;5068266;28;19920;-76
2023/04/30 08:45:13;;;;;;;;;;;;;;;;;;5086031;28;19920;-75
2023/04/30 08:48:00;;;;;;;;;;;;;;;;;;5074889;28;19934;-76
2023/04/30 08:50:46;;;;;;;;;;;;;;;;;;5062956;28;20295;-76
2023/04/30 08:53:33;;;;;;;;;;;;;;;;;;5068958;28;19920;-77
2023/04/30 08:56:20;;;;;;;;;;;;;;;;;;5069875;28;19916;-79
2023/04/30 08:59:06;;;;;;;;;;;;;;;;;;5077717;28;20399;-78
2023/04/30 09:01:53;;;;;;;;;;;;;;;;;;5071019;28;19916;-78
2023/04/30 09:04:39;;;;;;;;;;;;;;;;;;5083996;28;20299;-81
2023/04/30 09:07:27;;;;;;;;;;;;;;;;;;5065684;28;19928;-80
2023/04/30 09:10:15;;;;;;;;;;;;;;;;;;5076361;28;19916;-79
2023/04/30 09:13:02;;;;;;;;;;;;;;;;;;5072334;28;19924;-80
2023/04/30 09:15:48;;;;;;;;;;;;;;;;;;5078454;28;20468;-79
2023/04/30 09:18:35;;;;;;;;;;;;;;;;;;5080949;28;19920;-79
2023/04/30 09:21:21;;;;;;;;;;;;;;;;;;5066956;28;19919;-78
2023/04/30 09:24:08;;;;;;;;;;;;;;;;;;5084035;28;19920;-77
2023/04/30 09:26:54;;;;;;;;;;;;;;;;;;5080457;28;19928;-78
2023/04/30 09:29:41;;;;;;;;;;;;;;;;;;5077648;28;19949;-83
2023/04/30 09:32:27;;;;;;;;;;;;;;;;;;5081967;28;19920;-80
2023/04/30 09:35:14;;;;;;;;;;;;;;;;;;5075591;28;19924;-78
2023/04/30 09:38:01;;;;;;;;;;;;;;;;;;5086388;28;19916;-79
2023/04/30 09:40:48;;;;;;;;;;;;;;;;;;5067296;28;19942;-79
2023/04/30 09:43:34;;;;;;;;;;;;;;;;;;5076470;28;20366;-82
2023/04/30 09:46:21;;;;;;;;;;;;;;;;;;5074670;28;19931;-78
2023/04/30 09:49:07;;;;;;;;;;;;;;;;;;5080108;28;19920;-78
2023/04/30 09:51:54;;;;;;;;;;;;;;;;;;5073116;28;19920;-78
2023/04/30 09:54:41;;;;;;;;;;;;;;;;;;5081026;28;19947;-77
2023/04/30 09:57:27;;;;;;;;;;;;;;;;;;5065422;28;19916;-78
2023/04/30 10:00:14;;;;;;;;;;;;;;;;;;5077212;28;19927;-78
2023/04/30 10:03:00;;;;;;;;;;;;;;;;;;5076237;28;20323;-78
2023/04/30 10:05:47;;;;;;;;;;;;;;;;;;5070570;28;19935;-78
2023/04/30 10:08:33;;;;;;;;;;;;;;;;;;5076601;28;20438;-78
2023/04/30 10:11:20;;;;;;;;;;;;;;;;;;5087341;28;19916;-78
2023/04/30 10:14:07;;;;;;;;;;;;;;;;;;5081733;28;19920;-78
2023/04/30 10:16:54;;;;;;;;;;;;;;;;;;5073587;28;19926;-78
2023/04/30 10:19:40;;;;;;;;;;;;;;;;;;5081948;28;19924;-78
2023/04/30 10:22:27;;;;;;;;;;;;;;;;;;5084491;28;19920;-78
2023/04/30 10:25:13;;;;;;;;;;;;;;;;;;5080953;28;19947;-78
2023/04/30 10:28:00;;;;;;;;;;;;;;;;;;5069930;28;19924;-78
2023/04/30 10:30:46;;;;;;;;;;;;;;;;;;5084058;28;19930;-79
2023/04/30 10:33:33;;;;;;;;;;;;;;;;;;5086805;28;20406;-78
2023/04/30 10:36:19;;;;;;;;;;;;;;;;;;5072540;28;19927;-77
2023/04/30 10:39:06;;;;;;;;;;;;;;;;;;5085144;28;19923;-78
2023/04/30 10:41:52;;;;;;;;;;;;;;;;;;5085570;28;19920;-77
2023/04/30 10:44:39;;;;;;;;;;;;;;;;;;5066895;28;19919;-77
2023/04/30 10:47:25;;;;;;;;;;;;;;;;;;5079700;28;19924;-77
2023/04/30 10:50:12;;;;;;;;;;;;;;;;;;5084459;28;19927;-77
2023/04/30 10:52:58;;;;;;;;;;;;;;;;;;5074922;28;19920;-77
2023/04/30 10:55:45;;;;;;;;;;;;;;;;;;5084290;28;20481;-77
2023/04/30 10:58:33;;;;;;;;;;;;;;;;;;5074365;28;19916;-78
2023/04/30 11:01:21;;;;;;;;;;;;;;;;;;5077145;28;19917;-78
2023/04/30 11:04:07;;;;;;;;;;;;;;;;;;5083833;28;20399;-78
2023/04/30 11:06:53;;;;;;;;;;;;;;;;;;5068367;28;19927;-77
2023/04/30 11:09:40;;;;;;;;;;;;;;;;;;5083410;28;19931;-77
2023/04/30 11:12:30;;;;;;;;;;;;;;;;;;5082958;28;19918;-78
2023/04/30 11:15:16;;;;;;;;;;;;;;;;;;5082398;28;20372;-78
2023/04/30 11:18:03;;;;;;;;;;;;;;;;;;5075198;28;19916;-77
2023/04/30 11:20:53;;;;;;;;;;;;;;;;;;5085280;28;19965;-77
2023/04/30 11:23:40;;;;;;;;;;;;;;;;;;5075394;28;20686;-77
2023/04/30 11:26:27;;;;;;;;;;;;;;;;;;5089064;28;20294;-77
2023/04/30 11:29:13;;;;;;;;;;;;;;;;;;5095953;28;19928;-77
2023/04/30 11:32:00;;;;;;;;;;;;;;;;;;5082757;28;20287;-79
2023/04/30 11:34:46;;;;;;;;;;;;;;;;;;5080239;28;20066;-76
2023/04/30 11:37:33;;;;;;;;;;;;;;;;;;5083839;28;19920;-77
2023/04/30 11:40:19;;;;;;;;;;;;;;;;;;5081830;28;19920;-77
2023/04/30 11:43:06;;;;;;;;;;;;;;;;;;5079356;28;19916;-77
2023/04/30 11:45:52;;;;;;;;;;;;;;;;;;5088587;28;19927;-78
2023/04/30 11:48:39;;;;;;;;;;;;;;;;;;5084455;28;20318;-77
2023/04/30 11:51:25;;;;;;;;;;;;;;;;;;5079876;28;20633;-77
2023/04/30 11:54:12;;;;;;;;;;;;;;;;;;5084447;28;19938;-78
2023/04/30 11:57:02;;;;;;;;;;;;;;;;;;5085363;28;19928;-77
2023/04/30 11:59:49;;;;;;;;;;;;;;;;;;5081180;28;19920;-78
2023/04/30 12:02:35;;;;;;;;;;;;;;;;;;5069430;28;19916;-77
2023/04/30 12:05:22;;;;;;;;;;;;;;;;;;5083173;28;19922;-77
2023/04/30 12:08:09;;;;;;;;;;;;;;;;;;5083802;28;19932;-77
2023/04/30 12:10:56;;;;;;;;;;;;;;;;;;5073406;28;20291;-78
2023/04/30 12:13:42;;;;;;;;;;;;;;;;;;5086724;28;20303;-78
2023/04/30 12:16:29;;;;;;;;;;;;;;;;;;5066688;28;19923;-77
2023/04/30 12:19:15;;;;;;;;;;;;;;;;;;5082951;28;19928;-77
2023/04/30 12:22:02;;;;;;;;;;;;;;;;;;5083670;28;19917;-78
2023/04/30 12:24:48;;;;;;;;;;;;;;;;;;5080228;28;19998;-77
2023/04/30 12:27:35;;;;;;;;;;;;;;;;;;5071487;28;19924;-77
2023/04/30 12:30:21;;;;;;;;;;;;;;;;;;5082769;28;19927;-78
2023/04/30 12:33:08;;;;;;;;;;;;;;;;;;5066999;28;19923;-78
2023/04/30 12:35:55;;;;;;;;;;;;;;;;;;5080841;28;19993;-78
2023/04/30 12:38:42;;;;;;;;;;;;;;;;;;5077280;28;20383;-78
2023/04/30 12:41:29;;;;;;;;;;;;;;;;;;5083871;28;19919;-79
2023/04/30 12:44:15;;;;;;;;;;;;;;;;;;5082058;28;19920;-78
2023/04/30 12:47:02;;;;;;;;;;;;;;;;;;5084273;28;20278;-78
2023/04/30 12:49:48;;;;;;;;;;;;;;;;;;5074707;28;19946;-78
2023/04/30 12:52:35;;;;;;;;;;;;;;;;;;5082872;28;19923;-79
2023/04/30 12:55:21;;;;;;;;;;;;;;;;;;5080015;28;20394;-79
2023/04/30 12:58:08;;;;;;;;;;;;;;;;;;5084334;28;19912;-78
2023/04/30 13:00:54;;;;;;;;;;;;;;;;;;5065946;28;19923;-78
2023/04/30 13:03:41;;;;;;;;;;;;;;;;;;5080062;28;19927;-77
2023/04/30 13:06:28;;;;;;;;;;;;;;;;;;5074622;28;20292;-78
2023/04/30 13:09:14;;;;;;;;;;;;;;;;;;5070600;28;19920;-78
2023/04/30 13:12:01;;;;;;;;;;;;;;;;;;5072100;28;19923;-77
2023/04/30 13:14:47;;;;;;;;;;;;;;;;;;5082796;28;19920;-78
2023/04/30 13:17:35;;;;;;;;;;;;;;;;;;5083645;28;19943;-78
2023/04/30 13:20:23;;;;;;;;;;;;;;;;;;5078977;28;20295;-78
2023/04/30 13:23:10;;;;;;;;;;;;;;;;;;5073194;28;19928;-78
2023/04/30 13:25:57;;;;;;;;;;;;;;;;;;5067316;28;20405;-78
2023/04/30 13:28:44;;;;;;;;;;;;;;;;;;5072192;28;19926;-78
2023/04/30 13:31:30;;;;;;;;;;;;;;;;;;5081296;28;19920;-78
2023/04/30 13:34:17;;;;;;;;;;;;;;;;;;5068242;28;19962;-78
2023/04/30 13:37:03;;;;;;;;;;;;;;;;;;5060430;28;19951;-77
2023/04/30 13:39:50;;;;;;;;;;;;;;;;;;5056039;28;19921;-77
2023/04/30 13:42:36;;;;;;;;;;;;;;;;;;5041726;28;19917;-76
2023/04/30 13:45:23;;;;;;;;;;;;;;;;;;5065366;28;19927;-77
2023/04/30 13:48:09;;;;;;;;;;;;;;;;;;5044903;28;19931;-78
2023/04/30 13:50:56;;;;;;;;;;;;;;;;;;5074170;28;19926;-78
2023/04/30 13:53:43;;;;;;;;;;;;;;;;;;5064375;28;19923;-77
2023/04/30 13:56:29;;;;;;;;;;;;;;;;;;5063298;28;19923;-78
2023/04/30 13:59:16;;;;;;;;;;;;;;;;;;5061409;28;20443;-78
2023/04/30 14:02:02;;;;;;;;;;;;;;;;;;5066530;28;19927;-78
2023/04/30 14:04:49;;;;;;;;;;;;;;;;;;5068125;28;19931;-77
2023/04/30 14:07:36;;;;;;;;;;;;;;;;;;5070047;28;19931;-77
2023/04/30 14:10:22;;;;;;;;;;;;;;;;;;5069765;28;19920;-78
2023/04/30 14:13:09;;;;;;;;;;;;;;;;;;5058242;28;19913;-76
2023/04/30 14:15:55;;;;;;;;;;;;;;;;;;5065670;28;19920;-78
2023/04/30 14:18:43;;;;;;;;;;;;;;;;;;5064029;28;20379;-78
2023/04/30 14:21:29;;;;;;;;;;;;;;;;;;5061673;28;20633;-78
2023/04/30 14:24:16;;;;;;;;;;;;;;;;;;5052115;28;19916;-77
2023/04/30 14:27:03;;;;;;;;;;;;;;;;;;5068215;28;20717;-78
2023/04/30 14:29:50;;;;;;;;;;;;;;;;;;5069483;28;19916;-78
2023/04/30 14:32:36;;;;;;;;;;;;;;;;;;5057591;28;20528;-78
2023/04/30 14:35:23;;;;;;;;;;;;;;;;;;5067848;28;19943;-78
2023/04/30 14:38:09;;;;;;;;;;;;;;;;;;5065382;28;19942;-78
2023/04/30 14:40:56;;;;;;;;;;;;;;;;;;5068120;28;19931;-78
2023/04/30 14:43:42;;;;;;;;;;;;;;;;;;5048555;28;19934;-78
2023/04/30 14:46:29;;;;;;;;;;;;;;;;;;5066409;28;19935;-79
2023/04/30 14:49:16;;;;;;;;;;;;;;;;;;5066372;28;20269;-78
2023/04/30 14:52:02;;;;;;;;;;;;;;;;;;5062292;28;19928;-78
2023/04/30 14:54:49;;;;;;;;;;;;;;;;;;5058536;28;20479;-78
2023/04/30 14:57:36;;;;;;;;;;;;;;;;;;5079177;28;19924;-78
2023/04/30 15:00:22;;;;;;;;;;;;;;;;;;5062117;28;20408;-79
2023/04/30 15:03:09;;;;;;;;;;;;;;;;;;5057860;28;19916;-78
2023/04/30 15:05:55;;;;;;;;;;;;;;;;;;5060389;28;19921;-79
2023/04/30 15:08:42;;;;;;;;;;;;;;;;;;5063690;28;19931;-78
2023/04/30 15:11:28;;;;;;;;;;;;;;;;;;5065953;28;19927;-78
2023/04/30 15:14:16;;;;;;;;;;;;;;;;;;5067355;28;20477;-78
2023/04/30 15:17:02;;;;;;;;;;;;;;;;;;5063631;28;19917;-78
2023/04/30 15:19:49;;;;;;;;;;;;;;;;;;5055971;28;19923;-78
2023/04/30 15:22:35;;;;;;;;;;;;;;;;;;5066121;28;19950;-78
2023/04/30 15:25:22;;;;;;;;;;;;;;;;;;5050769;28;19916;-78
2023/04/30 15:28:09;;;;;;;;;;;;;;;;;;5060170;28;19935;-78
2023/04/30 15:30:55;;;;;;;;;;;;;;;;;;5062905;28;19917;-78
2023/04/30 15:33:42;;;;;;;;;;;;;;;;;;5067519;28;20192;-78
2023/04/30 15:36:28;;;;;;;;;;;;;;;;;;5048256;28;19930;-78
2023/04/30 15:39:15;;;;;;;;;;;;;;;;;;5061278;28;19917;-80
2023/04/30 15:42:02;;;;;;;;;;;;;;;;;;5062716;28;20360;-78
2023/04/30 15:44:48;;;;;;;;;;;;;;;;;;5059264;28;19924;-79
2023/04/30 15:47:35;;;;;;;;;;;;;;;;;;5064165;28;19967;-79
2023/04/30 15:50:21;;;;;;;;;;;;;;;;;;5062379;28;20294;-79
2023/04/30 15:53:08;;;;;;;;;;;;;;;;;;5052068;28;19920;-79
2023/04/30 15:55:55;;;;;;;;;;;;;;;;;;5041122;28;19924;-79
2023/04/30 15:58:42;;;;;;;;;;;;;;;;;;5064347;28;20567;-78
2023/04/30 16:01:28;;;;;;;;;;;;;;;;;;5056226;28;20487;-78
2023/04/30 16:04:15;;;;;;;;;;;;;;;;;;5071172;28;19935;-79
2023/04/30 16:07:02;;;;;;;;;;;;;;;;;;5072676;28;19924;-78
2023/04/30 16:09:48;;;;;;;;;;;;;;;;;;5046939;28;19924;-77
2023/04/30 16:12:35;;;;;;;;;;;;;;;;;;5063378;28;20296;-80
2023/04/30 16:15:23;;;;;;;;;;;;;;;;;;5063856;28;19920;-77
2023/04/30 16:18:09;;;;;;;;;;;;;;;;;;5039393;28;19928;-78
2023/04/30 16:20:56;;;;;;;;;;;;;;;;;;5062455;28;19920;-76
2023/04/30 16:23:42;;;;;;;;;;;;;;;;;;5061634;28;19924;-77
2023/04/30 16:26:29;;;;;;;;;;;;;;;;;;5057435;28;20565;-77
2023/04/30 16:29:16;;;;;;;;;;;;;;;;;;5061547;28;19923;-78
2023/04/30 16:32:02;;;;;;;;;;;;;;;;;;5062245;28;19920;-79
2023/04/30 16:34:50;;;;;;;;;;;;;;;;;;5057235;28;19928;-79
2023/04/30 16:37:36;;;;;;;;;;;;;;;;;;5055414;28;20311;-78
2023/04/30 16:40:23;;;;;;;;;;;;;;;;;;5063055;28;19920;-78
2023/04/30 16:43:09;;;;;;;;;;;;;;;;;;5043693;28;19924;-78
2023/04/30 16:45:56;;;;;;;;;;;;;;;;;;5063457;28;19923;-78
2023/04/30 16:48:43;;;;;;;;;;;;;;;;;;5059684;28;20435;-78
2023/04/30 16:51:31;;;;;;;;;;;;;;;;;;5054816;28;19927;-76
2023/04/30 16:54:17;;;;;;;;;;;;;;;;;;5065714;28;20372;-79
2023/04/30 16:57:04;;;;;;;;;;;;;;;;;;5058248;28;19920;-79
2023/04/30 16:59:50;;;;;;;;;;;;;;;;;;5058891;28;19920;-77
2023/04/30 17:02:38;;;;;;;;;;;;;;;;;;5066654;28;19921;-76
2023/04/30 17:05:25;;;;;;;;;;;;;;;;;;5060479;28;19920;-76
2023/04/30 17:08:12;;;;;;;;;;;;;;;;;;5062216;28;19963;-76
2023/04/30 17:10:58;;;;;;;;;;;;;;;;;;5041078;28;19924;-77
2023/04/30 17:13:45;;;;;;;;;;;;;;;;;;5061514;28;19913;-78
2023/04/30 17:16:31;;;;;;;;;;;;;;;;;;5057548;28;19940;-77
2023/04/30 17:19:18;;;;;;;;;;;;;;;;;;5059764;28;20279;-78
2023/04/30 17:22:04;;;;;;;;;;;;;;;;;;5039343;28;19927;-77
2023/04/30 17:24:51;;;;;;;;;;;;;;;;;;5047371;28;19917;-80
2023/04/30 17:27:37;;;;;;;;;;;;;;;;;;5064706;28;20019;-77
2023/04/30 17:30:25;;;;;;;;;;;;;;;;;;5062440;28;19925;-79
2023/04/30 17:33:11;;;;;;;;;;;;;;;;;;5059073;28;19925;-77
2023/04/30 17:35:57;;;;;;;;;;;;;;;;;;5055479;28;20323;-76
2023/04/30 17:38:44;;;;;;;;;;;;;;;;;;5053241;28;19923;-76
2023/04/30 17:41:31;;;;;;;;;;;;;;;;;;5065356;28;19927;-77
2023/04/30 17:44:18;;;;;;;;;;;;;;;;;;5062046;28;19917;-80
2023/04/30 17:47:05;;;;;;;;;;;;;;;;;;5038817;28;20014;-78
2023/04/30 17:49:51;;;;;;;;;;;;;;;;;;5061522;28;19917;-77
2023/04/30 17:52:38;;;;;;;;;;;;;;;;;;5069510;28;19916;-78
2023/04/30 17:55:24;;;;;;;;;;;;;;;;;;5063073;28;19924;-78
2023/04/30 17:58:11;;;;;;;;;;;;;;;;;;5063484;28;19920;-77
2023/04/30 18:00:59;;;;;;;;;;;;;;;;;;5044636;28;19943;-81
2023/04/30 18:03:46;;;;;;;;;;;;;;;;;;5059558;28;19920;-82
2023/04/30 18:06:32;;;;;;;;;;;;;;;;;;5057396;28;19927;-82
2023/04/30 18:09:19;;;;;;;;;;;;;;;;;;5058378;28;19943;-83
2023/04/30 18:12:05;;;;;;;;;;;;;;;;;;5039989;28;19917;-79
2023/04/30 18:14:51;;;;;;;;;;;;;;;;;;5057675;28;19931;-81
2023/04/30 18:17:39;;;;;;;;;;;;;;;;;;5060602;28;19916;-78
2023/04/30 18:20:25;;;;;;;;;;;;;;;;;;5054833;28;19928;-79
2023/04/30 18:23:15;;;;;;;;;;;;;;;;;;5068241;28;19920;-80
2023/04/30 18:26:01;;;;;;;;;;;;;;;;;;5060869;28;19917;-80
2023/04/30 18:28:48;;;;;;;;;;;;;;;;;;5057420;28;19933;-80
2023/04/30 18:31:36;;;;;;;;;;;;;;;;;;5061772;28;19920;-78
2023/04/30 18:34:22;;;;;;;;;;;;;;;;;;5058525;28;20006;-78
2023/04/30 18:37:09;;;;;;;;;;;;;;;;;;5064036;28;20384;-79
2023/04/30 18:39:56;;;;;;;;;;;;;;;;;;5067421;28;19916;-79
2023/04/30 18:42:42;;;;;;;;;;;;;;;;;;5066026;28;19932;-77
2023/04/30 18:45:29;;;;;;;;;;;;;;;;;;5054015;28;20609;-78
2023/04/30 18:48:17;;;;;;;;;;;;;;;;;;5070508;28;20688;-79
2023/04/30 18:51:04;;;;;;;;;;;;;;;;;;5066407;28;19924;-79
2023/04/30 18:53:50;;;;;;;;;;;;;;;;;;5058178;28;20363;-76
2023/04/30 18:56:37;;;;;;;;;;;;;;;;;;5058373;28;19931;-77